sensor_id;sensor_type;location;lat;lon;timestamp;P1;durP1;ratioP1;P2;durP2;ratioP2
62947;SDS011;51940;52.126;-0.994;2022-07-21T00:01:31;4.70;;;1.20;;
62947;SDS011;51940;52.126;-0.994;2022-07-21T00:03:56;2.30;;;1.30;;
62947;SDS011;51940;52.126;-0.994;2022-07-21T00:06:22;5.70;;;1.30;;
62947;SDS011;51940;52.126;-0.994;2022-07-21T00:08:48;3.20;;;1.20;;
62947;SDS011;51940;52.126;-0.994;2022-07-21T00:11:13;3.10;;;1.30;;
62947;SDS011;51940;52.126;-0.994;2022-07-21T00:13:39;4.40;;;1.20;;
62947;SDS011;51940;52.126;-0.994;2022-07-21T00:16:04;3.80;;;1.10;;
62947;SDS011;51940;52.126;-0.994;2022-07-21T00:18:31;3.50;;;1.20;;
62947;SDS011;51940;52.126;-0.994;2022-07-21T00:20:57;4.80;;;1.40;;
62947;SDS011;51940;52.126;-0.994;2022-07-21T00:23:23;5.60;;;1.30;;
62947;SDS011;51940;52.126;-0.994;2022-07-21T00:25:49;4.60;;;1.30;;
62947;SDS011;51940;52.126;-0.994;2022-07-21T00:28:16;4.20;;;1.10;;
62947;SDS011;51940;52.126;-0.994;2022-07-21T00:30:42;3.20;;;1.90;;
62947;SDS011;51940;52.126;-0.994;2022-07-21T00:33:08;4.60;;;2.00;;
62947;SDS011;51940;52.126;-0.994;2022-07-21T00:35:33;3.80;;;1.30;;
62947;SDS011;51940;52.126;-0.994;2022-07-21T00:37:59;5.10;;;1.20;;
62947;SDS011;51940;52.126;-0.994;2022-07-21T00:40:24;2.80;;;1.30;;
62947;SDS011;51940;52.126;-0.994;2022-07-21T00:42:51;6.20;;;1.60;;
62947;SDS011;51940;52.126;-0.994;2022-07-21T00:45:16;5.10;;;1.80;;
62947;SDS011;51940;52.126;-0.994;2022-07-21T00:47:42;3.70;;;1.70;;
62947;SDS011;51940;52.126;-0.994;2022-07-21T00:50:10;4.40;;;1.50;;
62947;SDS011;51940;52.126;-0.994;2022-07-21T00:52:39;3.90;;;1.60;;
62947;SDS011;51940;52.126;-0.994;2022-07-21T00:55:05;6.20;;;1.70;;
62947;SDS011;51940;52.126;-0.994;2022-07-21T00:57:34;4.10;;;1.30;;
62947;SDS011;51940;52.126;-0.994;2022-07-21T01:00:00;3.90;;;1.20;;
62947;SDS011;51940;52.126;-0.994;2022-07-21T01:02:27;4.40;;;1.60;;
62947;SDS011;51940;52.126;-0.994;2022-07-21T01:04:53;2.70;;;1.40;;
62947;SDS011;51940;52.126;-0.994;2022-07-21T01:07:19;4.00;;;1.60;;
62947;SDS011;51940;52.126;-0.994;2022-07-21T01:09:45;5.00;;;1.60;;
62947;SDS011;51940;52.126;-0.994;2022-07-21T01:12:11;4.00;;;1.70;;
62947;SDS011;51940;52.126;-0.994;2022-07-21T01:14:37;7.00;;;1.80;;
62947;SDS011;51940;52.126;-0.994;2022-07-21T01:17:03;3.50;;;1.60;;
62947;SDS011;51940;52.126;-0.994;2022-07-21T01:19:29;5.10;;;1.50;;
62947;SDS011;51940;52.126;-0.994;2022-07-21T01:21:55;6.60;;;1.70;;
62947;SDS011;51940;52.126;-0.994;2022-07-21T01:24:21;4.80;;;1.60;;
62947;SDS011;51940;52.126;-0.994;2022-07-21T01:26:51;5.50;;;1.80;;
62947;SDS011;51940;52.126;-0.994;2022-07-21T01:29:18;4.40;;;1.50;;
62947;SDS011;51940;52.126;-0.994;2022-07-21T01:31:45;5.20;;;1.30;;
62947;SDS011;51940;52.126;-0.994;2022-07-21T01:34:12;6.90;;;1.70;;
62947;SDS011;51940;52.126;-0.994;2022-07-21T01:36:39;8.20;;;1.70;;
62947;SDS011;51940;52.126;-0.994;2022-07-21T01:39:05;5.10;;;1.70;;
62947;SDS011;51940;52.126;-0.994;2022-07-21T01:41:51;4.60;;;1.60;;
62947;SDS011;51940;52.126;-0.994;2022-07-21T01:44:16;4.10;;;1.70;;
62947;SDS011;51940;52.126;-0.994;2022-07-21T01:46:43;3.80;;;1.80;;
62947;SDS011;51940;52.126;-0.994;2022-07-21T01:49:12;5.00;;;1.80;;
62947;SDS011;51940;52.126;-0.994;2022-07-21T01:51:39;7.90;;;1.80;;
62947;SDS011;51940;52.126;-0.994;2022-07-21T01:54:06;4.40;;;1.50;;
62947;SDS011;51940;52.126;-0.994;2022-07-21T01:56:34;5.10;;;1.60;;
62947;SDS011;51940;52.126;-0.994;2022-07-21T01:59:00;4.60;;;1.80;;
62947;SDS011;51940;52.126;-0.994;2022-07-21T02:01:27;4.40;;;1.90;;
62947;SDS011;51940;52.126;-0.994;2022-07-21T02:03:57;6.30;;;1.90;;
62947;SDS011;51940;52.126;-0.994;2022-07-21T02:06:25;6.70;;;1.70;;
62947;SDS011;51940;52.126;-0.994;2022-07-21T02:08:51;8.00;;;2.00;;
62947;SDS011;51940;52.126;-0.994;2022-07-21T02:11:17;3.30;;;1.50;;
62947;SDS011;51940;52.126;-0.994;2022-07-21T02:13:43;5.00;;;1.60;;
62947;SDS011;51940;52.126;-0.994;2022-07-21T02:16:10;6.00;;;1.70;;
62947;SDS011;51940;52.126;-0.994;2022-07-21T02:18:35;4.10;;;1.60;;
62947;SDS011;51940;52.126;-0.994;2022-07-21T02:21:01;5.40;;;1.90;;
62947;SDS011;51940;52.126;-0.994;2022-07-21T02:23:27;5.60;;;1.70;;
62947;SDS011;51940;52.126;-0.994;2022-07-21T02:25:53;6.50;;;1.90;;
62947;SDS011;51940;52.126;-0.994;2022-07-21T02:28:19;6.40;;;2.00;;
62947;SDS011;51940;52.126;-0.994;2022-07-21T02:30:46;4.20;;;1.40;;
62947;SDS011;51940;52.126;-0.994;2022-07-21T02:33:12;6.30;;;1.60;;
62947;SDS011;51940;52.126;-0.994;2022-07-21T02:35:37;3.90;;;1.50;;
62947;SDS011;51940;52.126;-0.994;2022-07-21T02:38:04;3.80;;;1.40;;
62947;SDS011;51940;52.126;-0.994;2022-07-21T02:40:30;5.80;;;1.60;;
62947;SDS011;51940;52.126;-0.994;2022-07-21T02:42:56;4.40;;;1.70;;
62947;SDS011;51940;52.126;-0.994;2022-07-21T02:45:22;5.50;;;1.70;;
62947;SDS011;51940;52.126;-0.994;2022-07-21T02:50:16;3.90;;;1.50;;
62947;SDS011;51940;52.126;-0.994;2022-07-21T02:52:42;3.80;;;1.90;;
62947;SDS011;51940;52.126;-0.994;2022-07-21T02:55:08;5.20;;;1.90;;
62947;SDS011;51940;52.126;-0.994;2022-07-21T02:57:34;6.20;;;2.00;;
62947;SDS011;51940;52.126;-0.994;2022-07-21T02:59:59;7.00;;;1.70;;
62947;SDS011;51940;52.126;-0.994;2022-07-21T03:02:25;4.10;;;1.40;;
62947;SDS011;51940;52.126;-0.994;2022-07-21T03:04:50;2.40;;;1.30;;
62947;SDS011;51940;52.126;-0.994;2022-07-21T03:07:15;2.90;;;1.40;;
62947;SDS011;51940;52.126;-0.994;2022-07-21T03:09:41;5.40;;;2.20;;
62947;SDS011;51940;52.126;-0.994;2022-07-21T03:12:06;6.30;;;1.60;;
62947;SDS011;51940;52.126;-0.994;2022-07-21T03:14:32;5.20;;;1.60;;
62947;SDS011;51940;52.126;-0.994;2022-07-21T03:16:57;5.60;;;1.70;;
62947;SDS011;51940;52.126;-0.994;2022-07-21T03:19:23;4.20;;;1.50;;
62947;SDS011;51940;52.126;-0.994;2022-07-21T03:21:48;6.70;;;1.90;;
62947;SDS011;51940;52.126;-0.994;2022-07-21T03:24:15;6.90;;;1.50;;
62947;SDS011;51940;52.126;-0.994;2022-07-21T03:26:41;3.20;;;1.50;;
62947;SDS011;51940;52.126;-0.994;2022-07-21T03:29:06;4.80;;;1.60;;
62947;SDS011;51940;52.126;-0.994;2022-07-21T03:31:32;7.10;;;1.90;;
62947;SDS011;51940;52.126;-0.994;2022-07-21T03:33:57;6.70;;;1.60;;
62947;SDS011;51940;52.126;-0.994;2022-07-21T03:36:23;7.10;;;2.00;;
62947;SDS011;51940;52.126;-0.994;2022-07-21T03:38:48;6.70;;;1.70;;
62947;SDS011;51940;52.126;-0.994;2022-07-21T03:41:16;5.10;;;1.60;;
62947;SDS011;51940;52.126;-0.994;2022-07-21T03:43:41;3.70;;;1.80;;
62947;SDS011;51940;52.126;-0.994;2022-07-21T03:46:07;7.20;;;1.80;;
62947;SDS011;51940;52.126;-0.994;2022-07-21T03:48:33;6.50;;;1.80;;
62947;SDS011;51940;52.126;-0.994;2022-07-21T03:50:59;5.30;;;1.70;;
62947;SDS011;51940;52.126;-0.994;2022-07-21T03:53:25;2.50;;;1.60;;
62947;SDS011;51940;52.126;-0.994;2022-07-21T03:55:50;5.80;;;1.80;;
62947;SDS011;51940;52.126;-0.994;2022-07-21T03:58:16;5.00;;;1.80;;
62947;SDS011;51940;52.126;-0.994;2022-07-21T04:00:42;6.20;;;2.00;;
62947;SDS011;51940;52.126;-0.994;2022-07-21T04:03:09;4.10;;;1.80;;
62947;SDS011;51940;52.126;-0.994;2022-07-21T04:05:36;6.60;;;2.20;;
62947;SDS011;51940;52.126;-0.994;2022-07-21T04:08:02;11.10;;;3.30;;
62947;SDS011;51940;52.126;-0.994;2022-07-21T04:10:29;5.80;;;2.30;;
62947;SDS011;51940;52.126;-0.994;2022-07-21T04:12:57;5.40;;;1.80;;
62947;SDS011;51940;52.126;-0.994;2022-07-21T04:15:24;6.90;;;1.90;;
62947;SDS011;51940;52.126;-0.994;2022-07-21T04:17:49;7.60;;;2.50;;
62947;SDS011;51940;52.126;-0.994;2022-07-21T04:20:16;4.10;;;2.10;;
62947;SDS011;51940;52.126;-0.994;2022-07-21T04:22:42;9.60;;;2.30;;
62947;SDS011;51940;52.126;-0.994;2022-07-21T04:25:09;5.10;;;1.90;;
62947;SDS011;51940;52.126;-0.994;2022-07-21T04:27:36;5.20;;;2.30;;
62947;SDS011;51940;52.126;-0.994;2022-07-21T04:30:03;5.90;;;2.20;;
62947;SDS011;51940;52.126;-0.994;2022-07-21T04:32:30;8.10;;;2.40;;
62947;SDS011;51940;52.126;-0.994;2022-07-21T04:34:56;6.40;;;2.20;;
62947;SDS011;51940;52.126;-0.994;2022-07-21T04:37:21;6.70;;;2.20;;
62947;SDS011;51940;52.126;-0.994;2022-07-21T04:39:47;6.60;;;2.20;;
62947;SDS011;51940;52.126;-0.994;2022-07-21T04:42:13;4.50;;;2.10;;
62947;SDS011;51940;52.126;-0.994;2022-07-21T04:44:39;7.30;;;2.30;;
62947;SDS011;51940;52.126;-0.994;2022-07-21T04:47:05;6.60;;;2.20;;
62947;SDS011;51940;52.126;-0.994;2022-07-21T04:49:30;7.70;;;2.60;;
62947;SDS011;51940;52.126;-0.994;2022-07-21T04:51:56;6.40;;;2.40;;
62947;SDS011;51940;52.126;-0.994;2022-07-21T04:54:21;7.90;;;2.80;;
62947;SDS011;51940;52.126;-0.994;2022-07-21T04:56:47;6.00;;;2.20;;
62947;SDS011;51940;52.126;-0.994;2022-07-21T04:59:13;6.50;;;2.40;;
62947;SDS011;51940;52.126;-0.994;2022-07-21T05:01:38;7.90;;;2.70;;
62947;SDS011;51940;52.126;-0.994;2022-07-21T05:04:05;4.80;;;2.20;;
62947;SDS011;51940;52.126;-0.994;2022-07-21T05:06:31;6.50;;;2.50;;
62947;SDS011;51940;52.126;-0.994;2022-07-21T05:08:57;4.80;;;2.00;;
62947;SDS011;51940;52.126;-0.994;2022-07-21T05:11:23;7.60;;;2.00;;
62947;SDS011;51940;52.126;-0.994;2022-07-21T05:13:48;4.10;;;2.10;;
62947;SDS011;51940;52.126;-0.994;2022-07-21T05:16:14;7.60;;;2.40;;
62947;SDS011;51940;52.126;-0.994;2022-07-21T05:18:39;5.60;;;2.20;;
62947;SDS011;51940;52.126;-0.994;2022-07-21T05:21:05;8.10;;;2.20;;
62947;SDS011;51940;52.126;-0.994;2022-07-21T05:23:30;5.10;;;1.90;;
62947;SDS011;51940;52.126;-0.994;2022-07-21T05:25:56;6.50;;;2.00;;
62947;SDS011;51940;52.126;-0.994;2022-07-21T05:28:21;4.00;;;2.00;;
62947;SDS011;51940;52.126;-0.994;2022-07-21T05:30:47;6.60;;;1.90;;
62947;SDS011;51940;52.126;-0.994;2022-07-21T05:33:12;5.10;;;1.90;;
62947;SDS011;51940;52.126;-0.994;2022-07-21T05:35:38;7.30;;;2.40;;
62947;SDS011;51940;52.126;-0.994;2022-07-21T05:38:04;6.40;;;2.00;;
62947;SDS011;51940;52.126;-0.994;2022-07-21T05:40:30;6.30;;;2.20;;
62947;SDS011;51940;52.126;-0.994;2022-07-21T05:42:55;6.40;;;2.10;;
62947;SDS011;51940;52.126;-0.994;2022-07-21T05:45:21;8.00;;;1.90;;
62947;SDS011;51940;52.126;-0.994;2022-07-21T05:47:46;6.30;;;2.00;;
62947;SDS011;51940;52.126;-0.994;2022-07-21T05:50:12;5.10;;;2.00;;
62947;SDS011;51940;52.126;-0.994;2022-07-21T05:52:37;5.30;;;1.90;;
62947;SDS011;51940;52.126;-0.994;2022-07-21T05:55:03;3.50;;;1.60;;
62947;SDS011;51940;52.126;-0.994;2022-07-21T05:57:29;7.10;;;1.70;;
62947;SDS011;51940;52.126;-0.994;2022-07-21T05:59:55;4.00;;;1.80;;
62947;SDS011;51940;52.126;-0.994;2022-07-21T06:02:20;6.30;;;2.00;;
62947;SDS011;51940;52.126;-0.994;2022-07-21T06:04:46;6.00;;;2.10;;
62947;SDS011;51940;52.126;-0.994;2022-07-21T06:07:11;4.20;;;2.00;;
62947;SDS011;51940;52.126;-0.994;2022-07-21T06:09:37;6.00;;;2.00;;
62947;SDS011;51940;52.126;-0.994;2022-07-21T06:12:02;5.10;;;1.70;;
62947;SDS011;51940;52.126;-0.994;2022-07-21T06:14:28;7.80;;;1.90;;
62947;SDS011;51940;52.126;-0.994;2022-07-21T06:16:54;7.50;;;2.30;;
62947;SDS011;51940;52.126;-0.994;2022-07-21T06:19:20;8.70;;;2.00;;
62947;SDS011;51940;52.126;-0.994;2022-07-21T06:21:45;5.00;;;2.20;;
62947;SDS011;51940;52.126;-0.994;2022-07-21T06:24:11;6.80;;;1.90;;
62947;SDS011;51940;52.126;-0.994;2022-07-21T06:26:37;5.80;;;1.80;;
62947;SDS011;51940;52.126;-0.994;2022-07-21T06:29:04;7.20;;;1.90;;
62947;SDS011;51940;52.126;-0.994;2022-07-21T06:31:29;5.70;;;1.80;;
62947;SDS011;51940;52.126;-0.994;2022-07-21T06:33:55;7.60;;;2.40;;
62947;SDS011;51940;52.126;-0.994;2022-07-21T06:36:21;6.50;;;2.20;;
62947;SDS011;51940;52.126;-0.994;2022-07-21T06:38:46;6.00;;;1.80;;
62947;SDS011;51940;52.126;-0.994;2022-07-21T06:41:12;5.80;;;2.00;;
62947;SDS011;51940;52.126;-0.994;2022-07-21T06:43:38;7.70;;;1.90;;
62947;SDS011;51940;52.126;-0.994;2022-07-21T06:46:04;4.80;;;1.80;;
62947;SDS011;51940;52.126;-0.994;2022-07-21T06:48:31;5.70;;;2.10;;
62947;SDS011;51940;52.126;-0.994;2022-07-21T06:50:56;6.10;;;1.90;;
62947;SDS011;51940;52.126;-0.994;2022-07-21T06:53:23;4.50;;;1.90;;
62947;SDS011;51940;52.126;-0.994;2022-07-21T06:55:50;9.80;;;1.90;;
62947;SDS011;51940;52.126;-0.994;2022-07-21T06:58:19;5.00;;;2.10;;
62947;SDS011;51940;52.126;-0.994;2022-07-21T07:00:47;4.90;;;1.80;;
62947;SDS011;51940;52.126;-0.994;2022-07-21T07:03:15;5.80;;;2.00;;
62947;SDS011;51940;52.126;-0.994;2022-07-21T07:05:42;5.10;;;1.90;;
62947;SDS011;51940;52.126;-0.994;2022-07-21T07:08:09;4.80;;;1.90;;
62947;SDS011;51940;52.126;-0.994;2022-07-21T07:10:35;4.60;;;1.80;;
62947;SDS011;51940;52.126;-0.994;2022-07-21T07:13:01;5.50;;;2.20;;
62947;SDS011;51940;52.126;-0.994;2022-07-21T07:15:27;5.50;;;1.80;;
62947;SDS011;51940;52.126;-0.994;2022-07-21T07:17:53;6.40;;;1.70;;
62947;SDS011;51940;52.126;-0.994;2022-07-21T07:20:20;5.40;;;2.20;;
62947;SDS011;51940;52.126;-0.994;2022-07-21T07:22:46;7.20;;;2.00;;
62947;SDS011;51940;52.126;-0.994;2022-07-21T07:25:13;4.40;;;1.60;;
62947;SDS011;51940;52.126;-0.994;2022-07-21T07:27:45;5.20;;;1.80;;
62947;SDS011;51940;52.126;-0.994;2022-07-21T07:30:13;5.30;;;2.10;;
62947;SDS011;51940;52.126;-0.994;2022-07-21T07:32:39;6.50;;;1.90;;
62947;SDS011;51940;52.126;-0.994;2022-07-21T07:35:06;5.60;;;1.90;;
62947;SDS011;51940;52.126;-0.994;2022-07-21T07:37:43;3.70;;;1.60;;
62947;SDS011;51940;52.126;-0.994;2022-07-21T07:40:11;6.90;;;2.10;;
62947;SDS011;51940;52.126;-0.994;2022-07-21T07:42:38;4.80;;;1.70;;
62947;SDS011;51940;52.126;-0.994;2022-07-21T07:45:05;3.50;;;1.40;;
62947;SDS011;51940;52.126;-0.994;2022-07-21T07:47:32;5.00;;;1.90;;
62947;SDS011;51940;52.126;-0.994;2022-07-21T07:50:04;4.80;;;1.90;;
62947;SDS011;51940;52.126;-0.994;2022-07-21T07:52:32;4.30;;;2.00;;
62947;SDS011;51940;52.126;-0.994;2022-07-21T07:54:57;8.90;;;2.10;;
62947;SDS011;51940;52.126;-0.994;2022-07-21T07:57:23;4.30;;;2.10;;
62947;SDS011;51940;52.126;-0.994;2022-07-21T07:59:48;5.80;;;1.90;;
62947;SDS011;51940;52.126;-0.994;2022-07-21T08:02:14;5.00;;;1.90;;
62947;SDS011;51940;52.126;-0.994;2022-07-21T08:04:41;4.20;;;2.10;;
62947;SDS011;51940;52.126;-0.994;2022-07-21T08:07:06;11.20;;;3.30;;
62947;SDS011;51940;52.126;-0.994;2022-07-21T08:09:33;5.60;;;2.00;;
62947;SDS011;51940;52.126;-0.994;2022-07-21T08:11:58;8.00;;;2.10;;
62947;SDS011;51940;52.126;-0.994;2022-07-21T08:14:24;4.40;;;1.60;;
62947;SDS011;51940;52.126;-0.994;2022-07-21T08:16:49;4.80;;;1.70;;
62947;SDS011;51940;52.126;-0.994;2022-07-21T08:19:15;4.00;;;1.80;;
62947;SDS011;51940;52.126;-0.994;2022-07-21T08:21:40;4.30;;;1.90;;
62947;SDS011;51940;52.126;-0.994;2022-07-21T08:24:06;6.30;;;2.10;;
62947;SDS011;51940;52.126;-0.994;2022-07-21T08:26:33;5.30;;;1.90;;
62947;SDS011;51940;52.126;-0.994;2022-07-21T08:28:59;4.50;;;2.00;;
62947;SDS011;51940;52.126;-0.994;2022-07-21T08:31:24;5.60;;;2.10;;
62947;SDS011;51940;52.126;-0.994;2022-07-21T08:33:50;4.80;;;2.20;;
62947;SDS011;51940;52.126;-0.994;2022-07-21T08:36:16;7.80;;;2.20;;
62947;SDS011;51940;52.126;-0.994;2022-07-21T08:38:43;5.20;;;2.00;;
62947;SDS011;51940;52.126;-0.994;2022-07-21T08:41:09;4.40;;;2.10;;
62947;SDS011;51940;52.126;-0.994;2022-07-21T08:43:40;5.30;;;1.80;;
62947;SDS011;51940;52.126;-0.994;2022-07-21T08:46:09;3.90;;;2.00;;
62947;SDS011;51940;52.126;-0.994;2022-07-21T08:48:36;5.10;;;2.50;;
62947;SDS011;51940;52.126;-0.994;2022-07-21T08:51:02;5.70;;;2.30;;
62947;SDS011;51940;52.126;-0.994;2022-07-21T08:53:30;4.40;;;2.20;;
62947;SDS011;51940;52.126;-0.994;2022-07-21T08:55:56;6.90;;;2.10;;
62947;SDS011;51940;52.126;-0.994;2022-07-21T08:58:22;4.50;;;1.90;;
62947;SDS011;51940;52.126;-0.994;2022-07-21T09:00:48;3.50;;;2.10;;
62947;SDS011;51940;52.126;-0.994;2022-07-21T09:03:17;5.60;;;2.20;;
62947;SDS011;51940;52.126;-0.994;2022-07-21T09:06:11;8.40;;;2.10;;
62947;SDS011;51940;52.126;-0.994;2022-07-21T09:08:47;3.60;;;2.30;;
62947;SDS011;51940;52.126;-0.994;2022-07-21T09:11:16;7.60;;;2.30;;
62947;SDS011;51940;52.126;-0.994;2022-07-21T09:13:43;4.20;;;2.10;;
62947;SDS011;51940;52.126;-0.994;2022-07-21T09:16:10;4.50;;;2.40;;
62947;SDS011;51940;52.126;-0.994;2022-07-21T09:18:49;8.20;;;2.50;;
62947;SDS011;51940;52.126;-0.994;2022-07-21T09:21:17;5.90;;;2.70;;
62947;SDS011;51940;52.126;-0.994;2022-07-21T09:23:44;7.70;;;2.40;;
62947;SDS011;51940;52.126;-0.994;2022-07-21T09:26:10;5.00;;;2.30;;
62947;SDS011;51940;52.126;-0.994;2022-07-21T09:28:36;6.10;;;2.20;;
62947;SDS011;51940;52.126;-0.994;2022-07-21T09:31:08;9.00;;;2.70;;
62947;SDS011;51940;52.126;-0.994;2022-07-21T09:33:44;5.10;;;2.60;;
62947;SDS011;51940;52.126;-0.994;2022-07-21T09:36:14;6.70;;;3.20;;
62947;SDS011;51940;52.126;-0.994;2022-07-21T09:38:49;6.80;;;3.00;;
62947;SDS011;51940;52.126;-0.994;2022-07-21T09:43:44;3.80;;;2.50;;
62947;SDS011;51940;52.126;-0.994;2022-07-21T09:46:23;5.70;;;2.60;;
62947;SDS011;51940;52.126;-0.994;2022-07-21T09:48:52;4.50;;;2.50;;
62947;SDS011;51940;52.126;-0.994;2022-07-21T09:51:23;3.90;;;2.60;;
62947;SDS011;51940;52.126;-0.994;2022-07-21T09:53:53;6.70;;;3.30;;
62947;SDS011;51940;52.126;-0.994;2022-07-21T09:56:37;5.20;;;3.00;;
62947;SDS011;51940;52.126;-0.994;2022-07-21T09:59:05;7.70;;;2.70;;
62947;SDS011;51940;52.126;-0.994;2022-07-21T10:01:33;5.60;;;2.60;;
62947;SDS011;51940;52.126;-0.994;2022-07-21T10:04:00;6.40;;;3.00;;
62947;SDS011;51940;52.126;-0.994;2022-07-21T10:06:27;6.40;;;2.60;;
62947;SDS011;51940;52.126;-0.994;2022-07-21T10:08:58;5.70;;;3.30;;
62947;SDS011;51940;52.126;-0.994;2022-07-21T10:11:25;9.20;;;3.30;;
62947;SDS011;51940;52.126;-0.994;2022-07-21T10:13:52;4.00;;;3.00;;
62947;SDS011;51940;52.126;-0.994;2022-07-21T10:16:18;5.90;;;3.40;;
62947;SDS011;51940;52.126;-0.994;2022-07-21T10:24:10;6.60;;;2.90;;
62947;SDS011;51940;52.126;-0.994;2022-07-21T10:26:37;7.80;;;3.30;;
62947;SDS011;51940;52.126;-0.994;2022-07-21T10:29:04;7.20;;;3.70;;
62947;SDS011;51940;52.126;-0.994;2022-07-21T10:31:31;8.70;;;3.60;;
62947;SDS011;51940;52.126;-0.994;2022-07-21T10:34:07;5.60;;;3.40;;
62947;SDS011;51940;52.126;-0.994;2022-07-21T10:47:04;6.10;;;3.80;;
62947;SDS011;51940;52.126;-0.994;2022-07-21T10:57:40;8.00;;;4.40;;
62947;SDS011;51940;52.126;-0.994;2022-07-21T11:02:59;10.10;;;4.90;;
62947;SDS011;51940;52.126;-0.994;2022-07-21T11:05:28;6.40;;;4.70;;
62947;SDS011;51940;52.126;-0.994;2022-07-21T11:08:11;7.00;;;4.90;;
62947;SDS011;51940;52.126;-0.994;2022-07-21T11:10:43;5.80;;;4.60;;
62947;SDS011;51940;52.126;-0.994;2022-07-21T11:13:09;6.60;;;5.20;;
62947;SDS011;51940;52.126;-0.994;2022-07-21T11:18:23;5.80;;;5.20;;
62947;SDS011;51940;52.126;-0.994;2022-07-21T11:23:37;8.50;;;5.20;;
62947;SDS011;51940;52.126;-0.994;2022-07-21T11:26:03;8.50;;;5.30;;
62947;SDS011;51940;52.126;-0.994;2022-07-21T11:28:29;6.70;;;4.80;;
62947;SDS011;51940;52.126;-0.994;2022-07-21T11:31:12;7.60;;;5.20;;
62947;SDS011;51940;52.126;-0.994;2022-07-21T11:33:44;9.90;;;5.70;;
62947;SDS011;51940;52.126;-0.994;2022-07-21T11:36:28;8.30;;;5.00;;
62947;SDS011;51940;52.126;-0.994;2022-07-21T11:39:00;6.40;;;5.20;;
62947;SDS011;51940;52.126;-0.994;2022-07-21T11:41:31;7.00;;;5.00;;
62947;SDS011;51940;52.126;-0.994;2022-07-21T11:43:58;8.00;;;4.90;;
62947;SDS011;51940;52.126;-0.994;2022-07-21T11:46:24;7.30;;;5.00;;
62947;SDS011;51940;52.126;-0.994;2022-07-21T11:49:03;7.90;;;4.90;;
62947;SDS011;51940;52.126;-0.994;2022-07-21T11:51:33;9.70;;;5.20;;
62947;SDS011;51940;52.126;-0.994;2022-07-21T11:54:00;7.40;;;5.10;;
62947;SDS011;51940;52.126;-0.994;2022-07-21T11:56:25;9.40;;;5.10;;
62947;SDS011;51940;52.126;-0.994;2022-07-21T11:59:07;6.70;;;5.10;;
62947;SDS011;51940;52.126;-0.994;2022-07-21T12:01:46;9.00;;;5.30;;
62947;SDS011;51940;52.126;-0.994;2022-07-21T12:04:29;9.10;;;5.80;;
62947;SDS011;51940;52.126;-0.994;2022-07-21T12:07:02;8.40;;;5.90;;
62947;SDS011;51940;52.126;-0.994;2022-07-21T12:09:29;8.30;;;5.60;;
62947;SDS011;51940;52.126;-0.994;2022-07-21T12:11:56;10.00;;;6.60;;
62947;SDS011;51940;52.126;-0.994;2022-07-21T12:14:38;12.00;;;5.60;;
62947;SDS011;51940;52.126;-0.994;2022-07-21T12:17:04;6.60;;;5.10;;
62947;SDS011;51940;52.126;-0.994;2022-07-21T12:19:30;9.80;;;5.90;;
62947;SDS011;51940;52.126;-0.994;2022-07-21T12:21:56;11.80;;;6.30;;
62947;SDS011;51940;52.126;-0.994;2022-07-21T12:24:23;11.10;;;6.00;;
62947;SDS011;51940;52.126;-0.994;2022-07-21T12:27:19;6.20;;;5.40;;
62947;SDS011;51940;52.126;-0.994;2022-07-21T12:29:46;9.20;;;5.60;;
62947;SDS011;51940;52.126;-0.994;2022-07-21T12:32:13;8.00;;;5.30;;
62947;SDS011;51940;52.126;-0.994;2022-07-21T12:34:49;9.00;;;5.60;;
62947;SDS011;51940;52.126;-0.994;2022-07-21T12:37:17;8.90;;;4.80;;
62947;SDS011;51940;52.126;-0.994;2022-07-21T12:39:43;8.10;;;4.70;;
62947;SDS011;51940;52.126;-0.994;2022-07-21T12:42:33;7.30;;;5.40;;
62947;SDS011;51940;52.126;-0.994;2022-07-21T12:45:13;9.00;;;5.40;;
62947;SDS011;51940;52.126;-0.994;2022-07-21T12:47:39;5.90;;;5.20;;
62947;SDS011;51940;52.126;-0.994;2022-07-21T12:50:07;5.50;;;4.70;;
62947;SDS011;51940;52.126;-0.994;2022-07-21T12:52:40;8.60;;;5.10;;
62947;SDS011;51940;52.126;-0.994;2022-07-21T12:55:07;6.00;;;4.10;;
62947;SDS011;51940;52.126;-0.994;2022-07-21T12:57:33;7.50;;;4.30;;
62947;SDS011;51940;52.126;-0.994;2022-07-21T12:59:59;6.80;;;4.90;;
62947;SDS011;51940;52.126;-0.994;2022-07-21T13:02:26;7.30;;;5.00;;
62947;SDS011;51940;52.126;-0.994;2022-07-21T13:04:53;5.50;;;4.80;;
62947;SDS011;51940;52.126;-0.994;2022-07-21T13:07:18;6.30;;;4.70;;
62947;SDS011;51940;52.126;-0.994;2022-07-21T13:09:44;5.60;;;4.50;;
62947;SDS011;51940;52.126;-0.994;2022-07-21T13:12:11;6.50;;;4.20;;
62947;SDS011;51940;52.126;-0.994;2022-07-21T13:14:38;8.40;;;4.80;;
62947;SDS011;51940;52.126;-0.994;2022-07-21T13:17:03;6.90;;;4.20;;
62947;SDS011;51940;52.126;-0.994;2022-07-21T13:19:29;6.60;;;4.20;;
62947;SDS011;51940;52.126;-0.994;2022-07-21T13:21:54;5.60;;;4.20;;
62947;SDS011;51940;52.126;-0.994;2022-07-21T13:24:21;7.40;;;4.10;;
62947;SDS011;51940;52.126;-0.994;2022-07-21T13:26:47;6.10;;;3.50;;
62947;SDS011;51940;52.126;-0.994;2022-07-21T13:29:12;4.60;;;3.60;;
62947;SDS011;51940;52.126;-0.994;2022-07-21T13:31:38;5.30;;;3.90;;
62947;SDS011;51940;52.126;-0.994;2022-07-21T13:34:04;7.50;;;3.40;;
62947;SDS011;51940;52.126;-0.994;2022-07-21T13:36:38;6.50;;;3.80;;
62947;SDS011;51940;52.126;-0.994;2022-07-21T13:39:04;4.90;;;3.50;;
62947;SDS011;51940;52.126;-0.994;2022-07-21T13:41:31;5.40;;;3.80;;
62947;SDS011;51940;52.126;-0.994;2022-07-21T13:43:58;5.00;;;3.00;;
62947;SDS011;51940;52.126;-0.994;2022-07-21T13:46:24;5.60;;;3.00;;
62947;SDS011;51940;52.126;-0.994;2022-07-21T13:48:50;6.30;;;3.30;;
62947;SDS011;51940;52.126;-0.994;2022-07-21T13:51:16;6.00;;;3.10;;
62947;SDS011;51940;52.126;-0.994;2022-07-21T13:53:44;6.80;;;3.00;;
62947;SDS011;51940;52.126;-0.994;2022-07-21T13:56:11;3.80;;;2.60;;
62947;SDS011;51940;52.126;-0.994;2022-07-21T13:58:42;4.10;;;2.40;;
62947;SDS011;51940;52.126;-0.994;2022-07-21T14:01:08;5.50;;;2.70;;
62947;SDS011;51940;52.126;-0.994;2022-07-21T14:03:37;5.60;;;2.40;;
62947;SDS011;51940;52.126;-0.994;2022-07-21T14:06:03;4.50;;;2.40;;
62947;SDS011;51940;52.126;-0.994;2022-07-21T14:08:28;4.20;;;2.30;;
62947;SDS011;51940;52.126;-0.994;2022-07-21T14:10:54;5.70;;;2.10;;
62947;SDS011;51940;52.126;-0.994;2022-07-21T14:13:20;4.80;;;2.30;;
62947;SDS011;51940;52.126;-0.994;2022-07-21T14:15:45;4.50;;;2.30;;
62947;SDS011;51940;52.126;-0.994;2022-07-21T14:18:11;6.30;;;2.40;;
62947;SDS011;51940;52.126;-0.994;2022-07-21T14:20:37;3.40;;;1.80;;
62947;SDS011;51940;52.126;-0.994;2022-07-21T14:23:03;2.70;;;2.00;;
62947;SDS011;51940;52.126;-0.994;2022-07-21T14:25:29;2.70;;;1.80;;
62947;SDS011;51940;52.126;-0.994;2022-07-21T14:27:55;4.70;;;2.20;;
62947;SDS011;51940;52.126;-0.994;2022-07-21T14:30:22;3.30;;;1.80;;
62947;SDS011;51940;52.126;-0.994;2022-07-21T14:32:52;4.90;;;2.10;;
62947;SDS011;51940;52.126;-0.994;2022-07-21T14:35:18;5.10;;;2.10;;
62947;SDS011;51940;52.126;-0.994;2022-07-21T14:37:45;5.00;;;2.20;;
62947;SDS011;51940;52.126;-0.994;2022-07-21T14:40:11;4.10;;;1.80;;
62947;SDS011;51940;52.126;-0.994;2022-07-21T14:42:37;4.20;;;1.50;;
62947;SDS011;51940;52.126;-0.994;2022-07-21T14:45:04;5.00;;;1.80;;
62947;SDS011;51940;52.126;-0.994;2022-07-21T14:47:33;2.80;;;1.70;;
62947;SDS011;51940;52.126;-0.994;2022-07-21T14:49:59;3.70;;;1.50;;
62947;SDS011;51940;52.126;-0.994;2022-07-21T14:52:25;2.50;;;1.40;;
62947;SDS011;51940;52.126;-0.994;2022-07-21T14:55:00;2.80;;;1.20;;
62947;SDS011;51940;52.126;-0.994;2022-07-21T14:57:33;3.30;;;1.40;;
62947;SDS011;51940;52.126;-0.994;2022-07-21T14:59:59;7.60;;;1.60;;
62947;SDS011;51940;52.126;-0.994;2022-07-21T15:02:24;3.30;;;1.60;;
62947;SDS011;51940;52.126;-0.994;2022-07-21T15:04:50;4.00;;;1.80;;
62947;SDS011;51940;52.126;-0.994;2022-07-21T15:07:16;3.10;;;1.90;;
62947;SDS011;51940;52.126;-0.994;2022-07-21T15:09:41;3.30;;;1.90;;
62947;SDS011;51940;52.126;-0.994;2022-07-21T15:12:08;3.10;;;1.70;;